KHIO

Portland-Hillsboro Airport

Portland, Oregon, USA
KHIO 230542Z 2306/2406 18015G24KT 6SM -RA OVC009 FM231400 19012G22KT 6SM -SHRA BR OVC015 FM232000 22010KT P6SM VCSH OVC022
Issued Valid From Valid To
Jan-23 @ 05:42 UTC
(2 hours ago)
Jan-23 @ 06:00 UTC
(an hour ago)
Jan-24 @ 06:00 UTC
(in 23 hours)
Jan-23 @ 06:00 to Jan-23 @ 14:00
KHIO 230542Z 2306/2406 18015G24KT 6SM -RA OVC009
Wind Visibility Clouds Conditions
180° at 15 knots
 Gusting to 24 knots
6 miles
  • Overcast at 900' AGL
  • Light Rain
From Jan-23 @ 14:00 to Jan-23 @ 20:00
FM231400 19012G22KT 6SM -SHRA BR OVC015
Wind Visibility Clouds Conditions
190° at 12 knots
 Gusting to 22 knots
6 miles
  • Overcast at 1,500' AGL
  • Light Rain
  • Mist
From Jan-23 @ 20:00 to Jan-24 @ 06:00
FM232000 22010KT P6SM VCSH OVC022
Wind Visibility Clouds
220° at 10 knots Greater than 6 miles
  • Overcast at 2,200' AGL
KHIO 230542Z 2306/2406 18015G24KT 6SM -RA OVC009 FM231400 19012G22KT 6SM -SHRA BR OVC015 FM232000 22010KT P6SM VCSH OVC022
Issued Jan-23 @ 05:42 UTC
(2 hours ago)
Valid From Jan-23 @ 06:00 UTC
(an hour ago)
Valid To Jan-24 @ 06:00 UTC
(in 23 hours)
Jan-23 @ 06:00 - Jan-23 @ 14:00
Wind Visibility
180° at 15 knots
 Gusting to 24 knots
6 miles
Clouds
  • Overcast at 900' AGL
Conditions
  • Light Rain
From Jan-23 @ 14:00 - Jan-23 @ 20:00
Wind Visibility
190° at 12 knots
 Gusting to 22 knots
6 miles
Clouds
  • Overcast at 1,500' AGL
Conditions
  • Light Rain
  • Mist
From Jan-23 @ 20:00 - Jan-24 @ 06:00
Wind Visibility
220° at 10 knots Greater than 6 miles
Clouds
  • Overcast at 2,200' AGL